sensor_id;sensor_type;location;lat;lon;timestamp;pressure;altitude;pressure_sealevel;temperature;humidity
10706;BME280;5404;42.656;23.336;2023-04-08T00:00:30;94903.16;;;6.03;100.00
10706;BME280;5404;42.656;23.336;2023-04-08T00:02:56;94894.16;;;6.09;100.00
10706;BME280;5404;42.656;23.336;2023-04-08T00:05:21;94903.97;;;6.09;100.00
10706;BME280;5404;42.656;23.336;2023-04-08T00:07:46;94905.81;;;6.08;100.00
10706;BME280;5404;42.656;23.336;2023-04-08T00:10:12;94901.81;;;6.11;100.00
10706;BME280;5404;42.656;23.336;2023-04-08T00:12:37;94908.44;;;6.08;100.00
10706;BME280;5404;42.656;23.336;2023-04-08T00:15:02;94910.56;;;6.06;100.00
10706;BME280;5404;42.656;23.336;2023-04-08T00:17:28;94904.22;;;6.12;100.00
10706;BME280;5404;42.656;23.336;2023-04-08T00:19:53;94907.09;;;6.01;100.00
10706;BME280;5404;42.656;23.336;2023-04-08T00:22:19;94910.56;;;5.96;100.00
10706;BME280;5404;42.656;23.336;2023-04-08T00:24:45;94905.81;;;5.93;100.00
10706;BME280;5404;42.656;23.336;2023-04-08T00:27:10;94902.09;;;5.99;100.00
10706;BME280;5404;42.656;23.336;2023-04-08T00:29:35;94902.09;;;5.94;100.00
10706;BME280;5404;42.656;23.336;2023-04-08T00:32:00;94905.53;;;5.89;100.00
10706;BME280;5404;42.656;23.336;2023-04-08T00:34:26;94913.75;;;5.98;100.00
10706;BME280;5404;42.656;23.336;2023-04-08T00:36:52;94907.66;;;6.03;100.00
10706;BME280;5404;42.656;23.336;2023-04-08T00:39:17;94915.56;;;5.98;100.00
10706;BME280;5404;42.656;23.336;2023-04-08T00:41:42;94906.06;;;5.92;100.00
10706;BME280;5404;42.656;23.336;2023-04-08T00:44:07;94908.19;;;5.89;100.00
10706;BME280;5404;42.656;23.336;2023-04-08T00:46:35;94909.22;;;5.88;100.00
10706;BME280;5404;42.656;23.336;2023-04-08T00:49:00;94920.06;;;5.97;100.00
10706;BME280;5404;42.656;23.336;2023-04-08T00:51:27;94919.03;;;5.98;100.00
10706;BME280;5404;42.656;23.336;2023-04-08T00:53:53;94906.84;;;5.92;100.00
10706;BME280;5404;42.656;23.336;2023-04-08T00:56:18;94915.28;;;5.84;100.00
10706;BME280;5404;42.656;23.336;2023-04-08T00:58:45;94916.84;;;5.80;100.00
10706;BME280;5404;42.656;23.336;2023-04-08T01:01:15;94920.59;;;5.84;100.00
10706;BME280;5404;42.656;23.336;2023-04-08T01:03:47;94920.00;;;5.82;100.00
10706;BME280;5404;42.656;23.336;2023-04-08T01:07:19;94919.50;;;5.85;100.00
10706;BME280;5404;42.656;23.336;2023-04-08T01:09:11;94928.69;;;5.62;100.00
10706;BME280;5404;42.656;23.336;2023-04-08T01:11:39;94917.78;;;5.44;100.00
10706;BME280;5404;42.656;23.336;2023-04-08T01:14:05;94923.34;;;5.42;100.00
10706;BME280;5404;42.656;23.336;2023-04-08T01:16:34;94922.53;;;5.37;100.00
10706;BME280;5404;42.656;23.336;2023-04-08T01:19:02;94924.09;;;5.33;100.00
10706;BME280;5404;42.656;23.336;2023-04-08T01:21:29;94927.25;;;5.30;100.00
10706;BME280;5404;42.656;23.336;2023-04-08T01:26:29;94929.38;;;5.28;100.00
10706;BME280;5404;42.656;23.336;2023-04-08T01:28:55;94927.72;;;5.17;100.00
10706;BME280;5404;42.656;23.336;2023-04-08T01:31:22;94931.19;;;5.17;100.00
10706;BME280;5404;42.656;23.336;2023-04-08T01:33:48;94918.78;;;5.23;100.00
10706;BME280;5404;42.656;23.336;2023-04-08T01:36:15;94917.72;;;5.24;100.00
10706;BME280;5404;42.656;23.336;2023-04-08T01:38:40;94914.00;;;5.20;100.00
10706;BME280;5404;42.656;23.336;2023-04-08T01:41:07;94923.28;;;5.22;100.00
10706;BME280;5404;42.656;23.336;2023-04-08T01:43:33;94919.31;;;5.25;100.00
10706;BME280;5404;42.656;23.336;2023-04-08T01:45:59;94925.94;;;5.27;100.00
10706;BME280;5404;42.656;23.336;2023-04-08T01:48:25;94918.03;;;5.32;100.00
10706;BME280;5404;42.656;23.336;2023-04-08T01:50:51;94925.69;;;5.39;100.00
10706;BME280;5404;42.656;23.336;2023-04-08T01:53:17;94921.50;;;5.48;100.00
10706;BME280;5404;42.656;23.336;2023-04-08T01:55:42;94929.72;;;5.56;100.00
10706;BME280;5404;42.656;23.336;2023-04-08T01:58:10;94921.56;;;5.63;100.00
10706;BME280;5404;42.656;23.336;2023-04-08T02:00:36;94929.00;;;5.71;100.00
10706;BME280;5404;42.656;23.336;2023-04-08T02:03:03;94926.34;;;5.76;100.00
10706;BME280;5404;42.656;23.336;2023-04-08T02:05:30;94931.38;;;5.77;100.00
10706;BME280;5404;42.656;23.336;2023-04-08T02:07:55;94937.72;;;5.76;100.00
10706;BME280;5404;42.656;23.336;2023-04-08T02:10:20;94942.00;;;5.82;100.00
10706;BME280;5404;42.656;23.336;2023-04-08T02:12:46;94944.38;;;5.84;100.00
10706;BME280;5404;42.656;23.336;2023-04-08T02:15:11;94935.88;;;5.82;100.00
10706;BME280;5404;42.656;23.336;2023-04-08T02:20:06;94949.09;;;5.77;100.00
10706;BME280;5404;42.656;23.336;2023-04-08T02:25:16;94940.88;;;5.73;100.00
10706;BME280;5404;42.656;23.336;2023-04-08T02:27:44;94944.06;;;5.70;100.00
10706;BME280;5404;42.656;23.336;2023-04-08T02:30:11;94947.50;;;5.71;100.00
10706;BME280;5404;42.656;23.336;2023-04-08T02:32:37;94948.28;;;5.71;100.00
10706;BME280;5404;42.656;23.336;2023-04-08T02:35:03;94938.50;;;5.67;100.00
10706;BME280;5404;42.656;23.336;2023-04-08T02:37:32;94939.56;;;5.71;100.00
10706;BME280;5404;42.656;23.336;2023-04-08T02:39:57;94940.34;;;5.71;100.00
10706;BME280;5404;42.656;23.336;2023-04-08T02:42:23;94938.50;;;5.72;100.00
10706;BME280;5404;42.656;23.336;2023-04-08T02:44:48;94942.72;;;5.73;100.00
10706;BME280;5404;42.656;23.336;2023-04-08T02:47:13;94941.94;;;5.72;100.00
10706;BME280;5404;42.656;23.336;2023-04-08T02:49:38;94940.06;;;5.68;100.00
10706;BME280;5404;42.656;23.336;2023-04-08T02:52:04;94939.56;;;5.71;100.00
10706;BME280;5404;42.656;23.336;2023-04-08T02:54:29;94947.44;;;5.66;100.00
10706;BME280;5404;42.656;23.336;2023-04-08T02:56:55;94937.41;;;5.63;100.00
10706;BME280;5404;42.656;23.336;2023-04-08T02:59:20;94939.28;;;5.67;100.00
10706;BME280;5404;42.656;23.336;2023-04-08T03:01:46;94942.97;;;5.66;100.00
10706;BME280;5404;42.656;23.336;2023-04-08T03:04:11;94952.50;;;5.67;100.00
10706;BME280;5404;42.656;23.336;2023-04-08T03:06:36;94949.06;;;5.72;100.00
10706;BME280;5404;42.656;23.336;2023-04-08T03:09:02;94951.19;;;5.75;100.00
10706;BME280;5404;42.656;23.336;2023-04-08T03:11:27;94946.97;;;5.74;100.00
10706;BME280;5404;42.656;23.336;2023-04-08T03:13:52;94943.81;;;5.82;100.00
10706;BME280;5404;42.656;23.336;2023-04-08T03:16:18;94948.09;;;5.88;100.00
10706;BME280;5404;42.656;23.336;2023-04-08T03:18:43;94935.38;;;5.90;100.00
10706;BME280;5404;42.656;23.336;2023-04-08T03:21:08;94941.47;;;5.85;100.00
10706;BME280;5404;42.656;23.336;2023-04-08T03:23:34;94940.66;;;5.85;100.00
10706;BME280;5404;42.656;23.336;2023-04-08T03:25:59;94936.41;;;5.79;100.00
10706;BME280;5404;42.656;23.336;2023-04-08T03:28:24;94938.50;;;5.72;100.00
10706;BME280;5404;42.656;23.336;2023-04-08T03:30:50;94935.59;;;5.68;100.00
10706;BME280;5404;42.656;23.336;2023-04-08T03:33:15;94944.81;;;5.61;100.00
10706;BME280;5404;42.656;23.336;2023-04-08T03:35:40;94945.84;;;5.55;100.00
10706;BME280;5404;42.656;23.336;2023-04-08T03:38:05;94950.03;;;5.46;100.00
10706;BME280;5404;42.656;23.336;2023-04-08T03:40:31;94942.13;;;5.51;100.00
10706;BME280;5404;42.656;23.336;2023-04-08T03:42:56;94944.28;;;5.59;100.00
10706;BME280;5404;42.656;23.336;2023-04-08T03:45:21;94952.22;;;5.64;100.00
10706;BME280;5404;42.656;23.336;2023-04-08T03:47:47;94938.50;;;5.67;100.00
10706;BME280;5404;42.656;23.336;2023-04-08T03:50:12;94942.22;;;5.76;100.00
10706;BME280;5404;42.656;23.336;2023-04-08T03:52:37;94944.88;;;5.81;100.00
10706;BME280;5404;42.656;23.336;2023-04-08T03:55:02;94938.03;;;5.85;100.00
10706;BME280;5404;42.656;23.336;2023-04-08T03:57:28;94942.28;;;5.86;100.00
10706;BME280;5404;42.656;23.336;2023-04-08T03:59:53;94936.19;;;5.85;100.00
10706;BME280;5404;42.656;23.336;2023-04-08T04:02:18;94939.63;;;5.86;100.00
10706;BME280;5404;42.656;23.336;2023-04-08T04:04:44;94937.25;;;5.84;100.00
10706;BME280;5404;42.656;23.336;2023-04-08T04:07:09;94937.00;;;5.91;100.00
10706;BME280;5404;42.656;23.336;2023-04-08T04:09:34;94933.28;;;5.92;100.00
10706;BME280;5404;42.656;23.336;2023-04-08T04:12:00;94933.00;;;5.93;100.00
10706;BME280;5404;42.656;23.336;2023-04-08T04:14:25;94940.16;;;5.88;100.00
10706;BME280;5404;42.656;23.336;2023-04-08T04:16:50;94942.00;;;5.87;100.00
10706;BME280;5404;42.656;23.336;2023-04-08T04:19:16;94943.09;;;5.92;100.00
10706;BME280;5404;42.656;23.336;2023-04-08T04:21:42;94945.19;;;5.95;100.00
10706;BME280;5404;42.656;23.336;2023-04-08T04:24:07;94949.97;;;5.98;100.00
10706;BME280;5404;42.656;23.336;2023-04-08T04:26:33;94949.69;;;5.99;100.00
10706;BME280;5404;42.656;23.336;2023-04-08T04:28:58;94947.03;;;5.94;100.00
10706;BME280;5404;42.656;23.336;2023-04-08T04:31:23;94945.19;;;5.95;100.00
10706;BME280;5404;42.656;23.336;2023-04-08T04:33:51;94947.84;;;5.89;100.00
10706;BME280;5404;42.656;23.336;2023-04-08T04:36:17;94946.22;;;5.88;100.00
10706;BME280;5404;42.656;23.336;2023-04-08T04:38:43;94953.88;;;5.85;100.00
10706;BME280;5404;42.656;23.336;2023-04-08T04:41:09;94949.69;;;5.89;100.00
10706;BME280;5404;42.656;23.336;2023-04-08T04:43:34;94952.31;;;5.89;100.00
10706;BME280;5404;42.656;23.336;2023-04-08T04:45:59;94954.16;;;5.88;100.00
10706;BME280;5404;42.656;23.336;2023-04-08T04:48:26;94954.44;;;5.87;100.00
10706;BME280;5404;42.656;23.336;2023-04-08T04:50:55;94952.81;;;5.81;100.00
10706;BME280;5404;42.656;23.336;2023-04-08T04:53:20;94956.00;;;5.83;100.00
10706;BME280;5404;42.656;23.336;2023-04-08T04:55:45;94964.47;;;5.85;100.00
10706;BME280;5404;42.656;23.336;2023-04-08T04:58:11;94966.34;;;5.84;100.00
10706;BME280;5404;42.656;23.336;2023-04-08T05:00:36;94970.50;;;5.80;100.00
10706;BME280;5404;42.656;23.336;2023-04-08T05:03:01;94969.44;;;5.76;100.00
10706;BME280;5404;42.656;23.336;2023-04-08T05:05:26;94969.69;;;5.70;100.00
10706;BME280;5404;42.656;23.336;2023-04-08T05:07:52;94972.09;;;5.81;100.00
10706;BME280;5404;42.656;23.336;2023-04-08T05:10:17;94970.81;;;5.84;100.00
10706;BME280;5404;42.656;23.336;2023-04-08T05:12:43;94975.31;;;5.83;100.00
10706;BME280;5404;42.656;23.336;2023-04-08T05:15:08;94963.97;;;5.88;100.00
10706;BME280;5404;42.656;23.336;2023-04-08T05:17:33;94969.25;;;5.93;100.00
10706;BME280;5404;42.656;23.336;2023-04-08T05:19:59;94974.56;;;6.03;100.00
10706;BME280;5404;42.656;23.336;2023-04-08T05:22:24;94970.09;;;6.04;100.00
10706;BME280;5404;42.656;23.336;2023-04-08T05:24:50;94964.78;;;6.04;100.00
10706;BME280;5404;42.656;23.336;2023-04-08T05:27:15;94952.13;;;6.16;100.00
10706;BME280;5404;42.656;23.336;2023-04-08T05:29:40;94970.91;;;6.29;100.00
10706;BME280;5404;42.656;23.336;2023-04-08T05:32:06;94954.78;;;6.41;100.00
10706;BME280;5404;42.656;23.336;2023-04-08T05:34:31;94960.06;;;6.56;100.00
10706;BME280;5404;42.656;23.336;2023-04-08T05:36:57;94966.66;;;6.73;100.00
10706;BME280;5404;42.656;23.336;2023-04-08T05:39:22;94961.91;;;6.80;100.00
10706;BME280;5404;42.656;23.336;2023-04-08T05:41:47;94967.19;;;6.90;100.00
10706;BME280;5404;42.656;23.336;2023-04-08T05:44:12;94957.38;;;7.01;100.00
10706;BME280;5404;42.656;23.336;2023-04-08T05:46:38;94962.34;;;7.23;100.00
10706;BME280;5404;42.656;23.336;2023-04-08T05:49:03;94953.28;;;7.39;100.00
10706;BME280;5404;42.656;23.336;2023-04-08T05:51:29;94948.75;;;7.49;100.00
10706;BME280;5404;42.656;23.336;2023-04-08T05:53:54;94949.50;;;7.60;100.00
10706;BME280;5404;42.656;23.336;2023-04-08T05:56:19;94947.09;;;7.68;100.00
10706;BME280;5404;42.656;23.336;2023-04-08T05:58:45;94943.06;;;7.71;100.00
10706;BME280;5404;42.656;23.336;2023-04-08T06:01:11;94946.81;;;7.70;100.00
10706;BME280;5404;42.656;23.336;2023-04-08T06:03:36;94945.44;;;7.72;100.00
10706;BME280;5404;42.656;23.336;2023-04-08T06:06:01;94945.19;;;7.74;100.00
10706;BME280;5404;42.656;23.336;2023-04-08T06:08:26;94940.94;;;7.73;100.00
10706;BME280;5404;42.656;23.336;2023-04-08T06:10:52;94948.66;;;7.69;100.00
10706;BME280;5404;42.656;23.336;2023-04-08T06:13:17;94950.47;;;7.79;100.00
10706;BME280;5404;42.656;23.336;2023-04-08T06:15:44;94949.31;;;7.95;100.00
10706;BME280;5404;42.656;23.336;2023-04-08T06:18:09;94940.56;;;7.99;100.00
10706;BME280;5404;42.656;23.336;2023-04-08T06:20:34;94938.34;;;8.11;100.00
10706;BME280;5404;42.656;23.336;2023-04-08T06:23:00;94932.97;;;8.21;100.00
10706;BME280;5404;42.656;23.336;2023-04-08T06:25:25;94939.34;;;8.25;100.00
10706;BME280;5404;42.656;23.336;2023-04-08T06:27:51;94930.81;;;8.34;100.00
10706;BME280;5404;42.656;23.336;2023-04-08T06:30:16;94926.69;;;8.51;100.00
10706;BME280;5404;42.656;23.336;2023-04-08T06:32:41;94925.50;;;8.62;100.00
10706;BME280;5404;42.656;23.336;2023-04-08T06:35:07;94930.53;;;8.64;100.00
10706;BME280;5404;42.656;23.336;2023-04-08T06:37:32;94930.78;;;8.67;100.00
10706;BME280;5404;42.656;23.336;2023-04-08T06:40:02;94937.13;;;8.71;100.00
10706;BME280;5404;42.656;23.336;2023-04-08T06:42:27;94938.16;;;8.75;100.00
10706;BME280;5404;42.656;23.336;2023-04-08T06:44:53;94934.44;;;8.76;100.00
10706;BME280;5404;42.656;23.336;2023-04-08T06:47:18;94939.75;;;8.76;100.00
10706;BME280;5404;42.656;23.336;2023-04-08T06:49:43;94937.97;;;8.67;100.00
10706;BME280;5404;42.656;23.336;2023-04-08T06:52:09;94942.28;;;8.58;100.00
10706;BME280;5404;42.656;23.336;2023-04-08T06:54:34;94942.63;;;8.51;100.00
10706;BME280;5404;42.656;23.336;2023-04-08T06:57:00;94947.16;;;8.46;100.00
10706;BME280;5404;42.656;23.336;2023-04-08T06:59:25;94938.34;;;8.50;100.00
10706;BME280;5404;42.656;23.336;2023-04-08T07:01:50;94948.38;;;8.58;100.00
10706;BME280;5404;42.656;23.336;2023-04-08T07:04:16;94948.84;;;8.65;100.00
10706;BME280;5404;42.656;23.336;2023-04-08T07:06:41;94945.06;;;8.76;100.00
10706;BME280;5404;42.656;23.336;2023-04-08T07:09:06;94920.09;;;8.72;100.00
10706;BME280;5404;42.656;23.336;2023-04-08T07:11:32;94943.06;;;8.92;100.00
10706;BME280;5404;42.656;23.336;2023-04-08T07:13:57;94937.63;;;9.02;100.00
10706;BME280;5404;42.656;23.336;2023-04-08T07:16:23;94943.06;;;9.15;100.00
10706;BME280;5404;42.656;23.336;2023-04-08T07:18:48;94940.03;;;9.27;100.00
10706;BME280;5404;42.656;23.336;2023-04-08T07:21:13;94948.31;;;9.49;100.00
10706;BME280;5404;42.656;23.336;2023-04-08T07:23:38;94950.09;;;9.54;100.00
10706;BME280;5404;42.656;23.336;2023-04-08T07:26:04;94959.72;;;9.50;100.00
10706;BME280;5404;42.656;23.336;2023-04-08T07:28:29;94945.72;;;9.44;100.00
10706;BME280;5404;42.656;23.336;2023-04-08T07:30:55;94948.31;;;9.49;100.00
10706;BME280;5404;42.656;23.336;2023-04-08T07:33:21;94948.97;;;9.60;100.00
10706;BME280;5404;42.656;23.336;2023-04-08T07:35:47;94958.94;;;9.73;100.00
10706;BME280;5404;42.656;23.336;2023-04-08T07:38:12;94951.06;;;10.05;100.00
10706;BME280;5404;42.656;23.336;2023-04-08T07:40:38;94952.81;;;10.33;100.00
10706;BME280;5404;42.656;23.336;2023-04-08T07:43:03;94951.66;;;10.39;100.00
10706;BME280;5404;42.656;23.336;2023-04-08T07:45:28;94961.75;;;10.42;100.00
10706;BME280;5404;42.656;23.336;2023-04-08T07:47:54;94959.72;;;10.34;100.00
10706;BME280;5404;42.656;23.336;2023-04-08T07:50:19;94960.88;;;10.28;100.00
10706;BME280;5404;42.656;23.336;2023-04-08T07:52:44;94884.44;;;9.73;100.00
10706;BME280;5404;42.656;23.336;2023-04-08T07:55:10;94963.75;;;10.31;100.00
10706;BME280;5404;42.656;23.336;2023-04-08T07:57:35;94971.81;;;10.45;100.00
10706;BME280;5404;42.656;23.336;2023-04-08T08:00:00;94965.63;;;10.49;100.00
10706;BME280;5404;42.656;23.336;2023-04-08T08:02:26;94973.44;;;10.59;100.00
10706;BME280;5404;42.656;23.336;2023-04-08T08:04:51;94971.84;;;10.77;100.00
10706;BME280;5404;42.656;23.336;2023-04-08T08:07:16;94975.19;;;11.01;100.00
10706;BME280;5404;42.656;23.336;2023-04-08T08:09:41;94977.50;;;11.21;100.00
10706;BME280;5404;42.656;23.336;2023-04-08T08:12:07;94975.44;;;11.32;100.00
10706;BME280;5404;42.656;23.336;2023-04-08T08:14:32;94979.00;;;11.27;100.00
10706;BME280;5404;42.656;23.336;2023-04-08T08:16:57;94978.06;;;11.50;100.00
10706;BME280;5404;42.656;23.336;2023-04-08T08:19:23;94974.41;;;11.73;100.00
10706;BME280;5404;42.656;23.336;2023-04-08T08:21:48;94893.53;;;11.32;100.00
10706;BME280;5404;42.656;23.336;2023-04-08T08:24:13;94972.25;;;11.76;100.00
10706;BME280;5404;42.656;23.336;2023-04-08T08:26:40;94974.53;;;11.82;100.00
10706;BME280;5404;42.656;23.336;2023-04-08T08:29:06;94981.47;;;11.83;100.00
10706;BME280;5404;42.656;23.336;2023-04-08T08:31:32;94972.03;;;11.86;100.00
10706;BME280;5404;42.656;23.336;2023-04-08T08:33:58;94982.00;;;11.53;100.00
10706;BME280;5404;42.656;23.336;2023-04-08T08:36:23;94976.34;;;11.41;100.00
10706;BME280;5404;42.656;23.336;2023-04-08T08:38:48;94980.53;;;11.60;100.00
10706;BME280;5404;42.656;23.336;2023-04-08T08:41:15;94981.81;;;11.90;100.00
10706;BME280;5404;42.656;23.336;2023-04-08T08:43:41;94987.19;;;12.04;100.00
10706;BME280;5404;42.656;23.336;2023-04-08T08:46:07;94978.94;;;12.14;100.00
10706;BME280;5404;42.656;23.336;2023-04-08T08:48:34;94978.63;;;12.29;100.00
10706;BME280;5404;42.656;23.336;2023-04-08T08:51:06;94979.16;;;12.17;100.00
10706;BME280;5404;42.656;23.336;2023-04-08T08:53:32;94978.66;;;12.02;100.00
10706;BME280;5404;42.656;23.336;2023-04-08T08:55:57;94980.66;;;11.96;100.00
10706;BME280;5404;42.656;23.336;2023-04-08T08:58:25;94987.97;;;11.77;100.00
10706;BME280;5404;42.656;23.336;2023-04-08T09:00:50;94985.88;;;11.60;100.00
10706;BME280;5404;42.656;23.336;2023-04-08T09:03:19;94983.66;;;11.49;100.00
10706;BME280;5404;42.656;23.336;2023-04-08T09:05:52;94985.38;;;11.58;100.00
10706;BME280;5404;42.656;23.336;2023-04-08T09:10:49;94987.72;;;11.46;100.00
10706;BME280;5404;42.656;23.336;2023-04-08T09:13:15;94990.09;;;11.61;100.00
10706;BME280;5404;42.656;23.336;2023-04-08T09:15:59;94987.84;;;11.96;100.00
10706;BME280;5404;42.656;23.336;2023-04-08T09:18:25;94985.94;;;12.59;100.00
10706;BME280;5404;42.656;23.336;2023-04-08T09:20:51;94976.41;;;13.02;100.00
10706;BME280;5404;42.656;23.336;2023-04-08T09:23:17;94970.44;;;13.27;100.00
10706;BME280;5404;42.656;23.336;2023-04-08T09:25:42;94972.78;;;13.29;100.00
10706;BME280;5404;42.656;23.336;2023-04-08T09:28:17;94975.38;;;13.42;100.00
10706;BME280;5404;42.656;23.336;2023-04-08T09:30:42;94963.31;;;13.53;99.41
10706;BME280;5404;42.656;23.336;2023-04-08T09:33:08;94960.94;;;13.52;97.76
10706;BME280;5404;42.656;23.336;2023-04-08T09:35:33;94882.91;;;13.28;96.28
10706;BME280;5404;42.656;23.336;2023-04-08T09:37:58;94963.41;;;14.27;89.83
10706;BME280;5404;42.656;23.336;2023-04-08T09:40:25;94946.06;;;15.09;83.31
10706;BME280;5404;42.656;23.336;2023-04-08T09:42:51;94954.78;;;15.61;79.52
10706;BME280;5404;42.656;23.336;2023-04-08T09:45:18;94962.84;;;15.61;74.07
10706;BME280;5404;42.656;23.336;2023-04-08T09:47:55;94960.84;;;15.24;72.09
10706;BME280;5404;42.656;23.336;2023-04-08T09:50:26;94952.59;;;15.46;74.19
10706;BME280;5404;42.656;23.336;2023-04-08T09:52:52;94945.81;;;15.86;73.36
10706;BME280;5404;42.656;23.336;2023-04-08T09:55:21;94942.81;;;15.88;72.35
10706;BME280;5404;42.656;23.336;2023-04-08T09:58:03;94945.50;;;15.50;74.74
10706;BME280;5404;42.656;23.336;2023-04-08T10:00:39;94943.66;;;16.09;73.90
10706;BME280;5404;42.656;23.336;2023-04-08T10:03:27;94941.78;;;16.59;67.98
10706;BME280;5404;42.656;23.336;2023-04-08T10:05:53;94936.63;;;16.46;66.92
10706;BME280;5404;42.656;23.336;2023-04-08T10:08:20;94937.94;;;16.10;66.94
10706;BME280;5404;42.656;23.336;2023-04-08T10:10:46;94935.88;;;15.49;70.08
10706;BME280;5404;42.656;23.336;2023-04-08T10:13:11;94938.19;;;15.04;73.63
10706;BME280;5404;42.656;23.336;2023-04-08T10:15:37;94940.91;;;14.62;78.00
10706;BME280;5404;42.656;23.336;2023-04-08T10:22:58;94941.16;;;13.61;88.95
10706;BME280;5404;42.656;23.336;2023-04-08T10:25:27;94930.50;;;13.39;92.65
10706;BME280;5404;42.656;23.336;2023-04-08T10:27:53;94934.94;;;13.13;96.02
10706;BME280;5404;42.656;23.336;2023-04-08T10:32:50;94936.56;;;12.56;100.00
10706;BME280;5404;42.656;23.336;2023-04-08T10:35:16;94933.69;;;12.31;100.00
10706;BME280;5404;42.656;23.336;2023-04-08T10:37:41;94940.25;;;12.11;100.00
10706;BME280;5404;42.656;23.336;2023-04-08T10:40:17;94938.91;;;12.00;100.00
10706;BME280;5404;42.656;23.336;2023-04-08T10:42:43;94933.38;;;11.97;100.00
10706;BME280;5404;42.656;23.336;2023-04-08T10:45:08;94925.84;;;12.12;100.00
10706;BME280;5404;42.656;23.336;2023-04-08T10:47:33;94924.47;;;12.37;100.00
10706;BME280;5404;42.656;23.336;2023-04-08T10:49:59;94912.56;;;12.87;100.00
10706;BME280;5404;42.656;23.336;2023-04-08T10:52:24;94916.72;;;13.63;100.00
10706;BME280;5404;42.656;23.336;2023-04-08T10:54:51;94910.94;;;14.51;94.29
10706;BME280;5404;42.656;23.336;2023-04-08T10:57:26;94904.66;;;15.65;80.60
10706;BME280;5404;42.656;23.336;2023-04-08T10:59:51;94909.47;;;16.39;72.89
10706;BME280;5404;42.656;23.336;2023-04-08T11:02:17;94894.38;;;16.46;69.26
10706;BME280;5404;42.656;23.336;2023-04-08T11:04:42;94899.16;;;16.20;68.22
10706;BME280;5404;42.656;23.336;2023-04-08T11:07:08;94890.19;;;15.58;68.89
10706;BME280;5404;42.656;23.336;2023-04-08T11:09:33;94907.91;;;14.70;73.99
10706;BME280;5404;42.656;23.336;2023-04-08T11:11:59;94904.56;;;14.13;78.78
10706;BME280;5404;42.656;23.336;2023-04-08T11:14:25;94899.94;;;13.96;83.14
10706;BME280;5404;42.656;23.336;2023-04-08T11:16:51;94898.25;;;14.18;82.30
10706;BME280;5404;42.656;23.336;2023-04-08T11:19:16;94894.00;;;14.17;79.83
10706;BME280;5404;42.656;23.336;2023-04-08T11:21:42;94886.59;;;14.05;82.08
10706;BME280;5404;42.656;23.336;2023-04-08T11:24:10;94878.06;;;13.94;78.77
10706;BME280;5404;42.656;23.336;2023-04-08T11:26:36;94874.78;;;14.15;78.41
10706;BME280;5404;42.656;23.336;2023-04-08T11:29:02;94884.38;;;14.16;77.96
10706;BME280;5404;42.656;23.336;2023-04-08T11:31:28;94883.66;;;14.32;77.57
10706;BME280;5404;42.656;23.336;2023-04-08T11:33:54;94871.78;;;14.59;75.96
10706;BME280;5404;42.656;23.336;2023-04-08T11:36:21;94867.03;;;14.81;74.15
10706;BME280;5404;42.656;23.336;2023-04-08T11:38:46;94871.88;;;14.96;71.51
10706;BME280;5404;42.656;23.336;2023-04-08T11:41:12;94874.81;;;14.49;70.95
10706;BME280;5404;42.656;23.336;2023-04-08T11:43:37;94863.94;;;15.08;69.58
10706;BME280;5404;42.656;23.336;2023-04-08T11:46:11;94862.34;;;15.62;67.58
10706;BME280;5404;42.656;23.336;2023-04-08T11:48:37;94856.91;;;16.00;62.44
10706;BME280;5404;42.656;23.336;2023-04-08T11:51:05;94861.53;;;15.91;59.22
10706;BME280;5404;42.656;23.336;2023-04-08T11:53:34;94856.38;;;15.57;59.54
10706;BME280;5404;42.656;23.336;2023-04-08T11:56:15;94860.31;;;15.13;62.77
10706;BME280;5404;42.656;23.336;2023-04-08T11:58:41;94856.47;;;13.82;73.90
10706;BME280;5404;42.656;23.336;2023-04-08T12:01:06;94861.56;;;14.27;71.93
10706;BME280;5404;42.656;23.336;2023-04-08T12:03:31;94847.31;;;13.92;71.41
10706;BME280;5404;42.656;23.336;2023-04-08T12:05:57;94833.00;;;14.05;74.48
10706;BME280;5404;42.656;23.336;2023-04-08T12:08:23;94854.69;;;13.61;78.29
10706;BME280;5404;42.656;23.336;2023-04-08T12:10:48;94843.03;;;13.65;78.72
10706;BME280;5404;42.656;23.336;2023-04-08T12:13:14;94839.31;;;13.27;77.76
10706;BME280;5404;42.656;23.336;2023-04-08T12:15:39;94834.91;;;13.31;83.53
10706;BME280;5404;42.656;23.336;2023-04-08T12:18:05;94841.00;;;13.88;80.48
10706;BME280;5404;42.656;23.336;2023-04-08T12:20:30;94831.41;;;14.13;80.17
10706;BME280;5404;42.656;23.336;2023-04-08T12:22:55;94832.38;;;14.51;77.42
10706;BME280;5404;42.656;23.336;2023-04-08T12:25:20;94825.28;;;14.55;72.75
10706;BME280;5404;42.656;23.336;2023-04-08T12:27:46;94816.47;;;14.12;72.30
10706;BME280;5404;42.656;23.336;2023-04-08T12:30:11;94817.03;;;13.57;77.90
10706;BME280;5404;42.656;23.336;2023-04-08T12:32:37;94827.00;;;13.26;83.14
10706;BME280;5404;42.656;23.336;2023-04-08T12:35:02;94828.00;;;13.00;87.62
10706;BME280;5404;42.656;23.336;2023-04-08T12:37:28;94830.09;;;12.50;92.08
10706;BME280;5404;42.656;23.336;2023-04-08T12:39:53;94817.72;;;12.10;96.95
10706;BME280;5404;42.656;23.336;2023-04-08T12:42:18;94821.13;;;12.02;98.53
10706;BME280;5404;42.656;23.336;2023-04-08T12:44:43;94826.22;;;12.34;94.75
10706;BME280;5404;42.656;23.336;2023-04-08T12:47:09;94813.47;;;12.31;95.59
10706;BME280;5404;42.656;23.336;2023-04-08T12:49:34;94831.31;;;12.44;95.37
10706;BME280;5404;42.656;23.336;2023-04-08T12:52:00;94815.00;;;12.54;94.07
10706;BME280;5404;42.656;23.336;2023-04-08T12:54:25;94815.50;;;12.56;92.18
10706;BME280;5404;42.656;23.336;2023-04-08T12:56:50;94819.91;;;12.52;95.18
10706;BME280;5404;42.656;23.336;2023-04-08T12:59:16;94814.44;;;12.57;99.69
10706;BME280;5404;42.656;23.336;2023-04-08T13:01:41;94820.47;;;12.49;100.00
10706;BME280;5404;42.656;23.336;2023-04-08T13:04:06;94818.44;;;12.46;100.00
10706;BME280;5404;42.656;23.336;2023-04-08T13:06:32;94814.31;;;12.40;100.00
10706;BME280;5404;42.656;23.336;2023-04-08T13:08:57;94824.66;;;12.33;100.00